sensor_id;sensor_type;location;lat;lon;timestamp;pressure;altitude;pressure_sealevel;temperature;humidity
79362;BME280;68830;47.566;19.012;2023-08-17T00:01:35;100230.53;;;20.39;100.00
79362;BME280;68830;47.566;19.012;2023-08-17T00:04:37;100223.50;;;20.45;100.00
79362;BME280;68830;47.566;19.012;2023-08-17T00:07:39;100232.59;;;20.37;100.00
79362;BME280;68830;47.566;19.012;2023-08-17T00:10:43;100228.44;;;20.35;100.00
79362;BME280;68830;47.566;19.012;2023-08-17T00:13:45;100232.16;;;20.27;100.00
79362;BME280;68830;47.566;19.012;2023-08-17T00:16:47;100227.00;;;20.25;100.00
79362;BME280;68830;47.566;19.012;2023-08-17T00:19:49;100227.41;;;20.22;100.00
79362;BME280;68830;47.566;19.012;2023-08-17T00:22:51;100221.59;;;20.19;100.00
79362;BME280;68830;47.566;19.012;2023-08-17T00:25:55;100221.78;;;20.17;100.00
79362;BME280;68830;47.566;19.012;2023-08-17T00:28:58;100217.44;;;20.16;100.00
79362;BME280;68830;47.566;19.012;2023-08-17T00:32:00;100207.72;;;20.15;100.00
79362;BME280;68830;47.566;19.012;2023-08-17T00:35:03;100201.09;;;20.11;100.00
79362;BME280;68830;47.566;19.012;2023-08-17T00:38:06;100204.81;;;20.17;100.00
79362;BME280;68830;47.566;19.012;2023-08-17T00:41:10;100200.50;;;20.22;100.00
79362;BME280;68830;47.566;19.012;2023-08-17T00:44:12;100193.88;;;20.25;100.00
79362;BME280;68830;47.566;19.012;2023-08-17T00:47:14;100203.38;;;20.14;100.00
79362;BME280;68830;47.566;19.012;2023-08-17T00:50:17;100205.88;;;20.22;100.00
79362;BME280;68830;47.566;19.012;2023-08-17T00:53:20;100212.91;;;20.17;100.00
79362;BME280;68830;47.566;19.012;2023-08-17T00:56:24;100219.75;;;20.26;100.00
79362;BME280;68830;47.566;19.012;2023-08-17T00:59:26;100223.06;;;20.35;100.00
79362;BME280;68830;47.566;19.012;2023-08-17T01:02:36;100227.63;;;20.41;100.00
79362;BME280;68830;47.566;19.012;2023-08-17T01:05:39;100219.16;;;20.44;100.00
79362;BME280;68830;47.566;19.012;2023-08-17T01:08:43;100227.44;;;20.49;100.00
79362;BME280;68830;47.566;19.012;2023-08-17T01:11:51;100216.47;;;20.50;100.00
79362;BME280;68830;47.566;19.012;2023-08-17T01:15:02;100214.81;;;20.49;100.00
79362;BME280;68830;47.566;19.012;2023-08-17T01:18:21;100222.06;;;20.62;100.00
79362;BME280;68830;47.566;19.012;2023-08-17T01:21:35;100223.31;;;20.59;100.00
79362;BME280;68830;47.566;19.012;2023-08-17T01:24:40;100227.84;;;20.66;100.00
79362;BME280;68830;47.566;19.012;2023-08-17T01:27:45;100234.06;;;20.59;100.00
79362;BME280;68830;47.566;19.012;2023-08-17T01:30:55;100224.56;;;20.57;100.00
79362;BME280;68830;47.566;19.012;2023-08-17T01:34:03;100221.22;;;20.48;100.00
79362;BME280;68830;47.566;19.012;2023-08-17T01:37:08;100222.06;;;20.49;100.00
79362;BME280;68830;47.566;19.012;2023-08-17T01:40:13;100221.84;;;20.44;100.00
79362;BME280;68830;47.566;19.012;2023-08-17T01:43:16;100226.00;;;20.46;100.00
79362;BME280;68830;47.566;19.012;2023-08-17T01:46:18;100221.03;;;20.43;100.00
79362;BME280;68830;47.566;19.012;2023-08-17T01:49:21;100218.34;;;20.50;100.00
79362;BME280;68830;47.566;19.012;2023-08-17T01:52:25;100219.38;;;20.49;100.00
79362;BME280;68830;47.566;19.012;2023-08-17T01:55:29;100204.66;;;20.38;100.00
79362;BME280;68830;47.566;19.012;2023-08-17T01:58:31;100212.53;;;20.40;100.00
79362;BME280;68830;47.566;19.012;2023-08-17T02:01:34;100206.69;;;20.36;100.00
79362;BME280;68830;47.566;19.012;2023-08-17T02:04:36;100206.31;;;20.39;100.00
79362;BME280;68830;47.566;19.012;2023-08-17T02:07:38;100204.66;;;20.38;100.00
79362;BME280;68830;47.566;19.012;2023-08-17T02:10:41;100207.34;;;20.38;100.00
79362;BME280;68830;47.566;19.012;2023-08-17T02:13:43;100207.16;;;20.40;100.00
79362;BME280;68830;47.566;19.012;2023-08-17T02:16:45;100215.22;;;20.46;100.00
79362;BME280;68830;47.566;19.012;2023-08-17T02:19:47;100212.97;;;20.43;100.00
79362;BME280;68830;47.566;19.012;2023-08-17T02:22:49;100218.97;;;20.45;100.00
79362;BME280;68830;47.566;19.012;2023-08-17T02:25:52;100213.16;;;20.42;100.00
79362;BME280;68830;47.566;19.012;2023-08-17T02:28:55;100219.56;;;20.41;100.00
79362;BME280;68830;47.566;19.012;2023-08-17T02:31:57;100212.34;;;20.41;100.00
79362;BME280;68830;47.566;19.012;2023-08-17T02:34:59;100209.25;;;20.44;100.00
79362;BME280;68830;47.566;19.012;2023-08-17T02:38:01;100215.03;;;20.41;100.00
79362;BME280;68830;47.566;19.012;2023-08-17T02:41:04;100213.16;;;20.42;100.00
79362;BME280;68830;47.566;19.012;2023-08-17T02:44:06;100216.47;;;20.37;100.00
79362;BME280;68830;47.566;19.012;2023-08-17T02:47:08;100211.06;;;20.37;100.00
79362;BME280;68830;47.566;19.012;2023-08-17T02:50:10;100210.66;;;20.40;100.00
79362;BME280;68830;47.566;19.012;2023-08-17T02:53:13;100209.66;;;20.41;100.00
79362;BME280;68830;47.566;19.012;2023-08-17T02:56:16;100206.97;;;20.41;100.00
79362;BME280;68830;47.566;19.012;2023-08-17T02:59:19;100191.81;;;20.40;100.00
79362;BME280;68830;47.566;19.012;2023-08-17T03:02:21;100195.34;;;20.41;100.00
79362;BME280;68830;47.566;19.012;2023-08-17T03:05:23;100188.50;;;20.32;100.00
79362;BME280;68830;47.566;19.012;2023-08-17T03:08:25;100194.28;;;20.35;100.00
79362;BME280;68830;47.566;19.012;2023-08-17T03:11:28;100200.50;;;20.36;100.00
79362;BME280;68830;47.566;19.012;2023-08-17T03:14:30;100206.28;;;20.33;100.00
79362;BME280;68830;47.566;19.012;2023-08-17T03:17:32;100211.25;;;20.36;100.00
79362;BME280;68830;47.566;19.012;2023-08-17T03:20:34;100212.72;;;20.32;100.00
79362;BME280;68830;47.566;19.012;2023-08-17T03:23:36;100209.41;;;20.29;100.00
79362;BME280;68830;47.566;19.012;2023-08-17T03:26:39;100204.44;;;20.26;100.00
79362;BME280;68830;47.566;19.012;2023-08-17T03:29:42;100201.13;;;20.24;100.00
79362;BME280;68830;47.566;19.012;2023-08-17T03:32:44;100192.22;;;20.24;100.00
79362;BME280;68830;47.566;19.012;2023-08-17T03:35:46;100184.16;;;20.24;100.00
79362;BME280;68830;47.566;19.012;2023-08-17T03:38:48;100182.91;;;20.26;100.00
79362;BME280;68830;47.566;19.012;2023-08-17T03:41:51;100181.47;;;20.24;100.00
79362;BME280;68830;47.566;19.012;2023-08-17T03:44:54;100194.31;;;20.22;100.00
79362;BME280;68830;47.566;19.012;2023-08-17T03:47:56;100190.13;;;20.19;100.00
79362;BME280;68830;47.566;19.012;2023-08-17T03:50:58;100198.00;;;20.21;100.00
79362;BME280;68830;47.566;19.012;2023-08-17T03:54:01;100190.38;;;20.24;100.00
79362;BME280;68830;47.566;19.012;2023-08-17T03:57:04;100193.66;;;20.20;100.00
79362;BME280;68830;47.566;19.012;2023-08-17T04:00:08;100185.38;;;20.21;100.00
79362;BME280;68830;47.566;19.012;2023-08-17T04:03:11;100198.81;;;20.21;100.00
79362;BME280;68830;47.566;19.012;2023-08-17T04:06:13;100184.75;;;20.19;100.00
79362;BME280;68830;47.566;19.012;2023-08-17T04:09:16;100189.31;;;20.19;100.00
79362;BME280;68830;47.566;19.012;2023-08-17T04:12:19;100187.03;;;20.16;100.00
79362;BME280;68830;47.566;19.012;2023-08-17T04:15:22;100189.72;;;20.16;100.00
79362;BME280;68830;47.566;19.012;2023-08-17T04:18:24;100198.00;;;20.14;100.00
79362;BME280;68830;47.566;19.012;2023-08-17T04:21:26;100204.00;;;20.16;100.00
79362;BME280;68830;47.566;19.012;2023-08-17T04:24:28;100203.59;;;20.19;100.00
79362;BME280;68830;47.566;19.012;2023-08-17T04:27:31;100212.69;;;20.18;100.00
79362;BME280;68830;47.566;19.012;2023-08-17T04:30:33;100210.81;;;20.19;100.00
79362;BME280;68830;47.566;19.012;2023-08-17T04:33:36;100212.09;;;20.23;100.00
79362;BME280;68830;47.566;19.012;2023-08-17T04:36:38;100215.81;;;20.22;100.00
79362;BME280;68830;47.566;19.012;2023-08-17T04:39:41;100225.53;;;20.29;100.00
79362;BME280;68830;47.566;19.012;2023-08-17T04:42:46;100218.72;;;20.27;100.00
79362;BME280;68830;47.566;19.012;2023-08-17T04:45:48;100211.25;;;20.29;100.00
79362;BME280;68830;47.566;19.012;2023-08-17T04:48:51;100214.78;;;20.29;100.00
79362;BME280;68830;47.566;19.012;2023-08-17T04:51:54;100217.06;;;20.33;100.00
79362;BME280;68830;47.566;19.012;2023-08-17T04:54:56;100220.59;;;20.40;100.00
79362;BME280;68830;47.566;19.012;2023-08-17T04:57:59;100220.00;;;20.44;100.00
79362;BME280;68830;47.566;19.012;2023-08-17T05:01:02;100217.31;;;20.44;100.00
79362;BME280;68830;47.566;19.012;2023-08-17T05:04:05;100221.22;;;20.48;100.00
79362;BME280;68830;47.566;19.012;2023-08-17T05:07:08;100218.78;;;20.53;100.00
79362;BME280;68830;47.566;19.012;2023-08-17T05:10:10;100212.13;;;20.49;100.00
79362;BME280;68830;47.566;19.012;2023-08-17T05:13:13;100220.41;;;20.48;100.00
79362;BME280;68830;47.566;19.012;2023-08-17T05:16:15;100219.59;;;20.54;100.00
79362;BME280;68830;47.566;19.012;2023-08-17T05:19:17;100224.75;;;20.62;100.00
79362;BME280;68830;47.566;19.012;2023-08-17T05:22:20;100218.94;;;20.65;100.00
79362;BME280;68830;47.566;19.012;2023-08-17T05:25:22;100231.81;;;20.83;100.00
79362;BME280;68830;47.566;19.012;2023-08-17T05:28:25;100226.59;;;20.95;100.00
79362;BME280;68830;47.566;19.012;2023-08-17T05:31:27;100236.53;;;21.07;100.00
79362;BME280;68830;47.566;19.012;2023-08-17T05:34:30;100233.38;;;21.24;100.00
79362;BME280;68830;47.566;19.012;2023-08-17T05:37:32;100230.66;;;21.43;100.00
79362;BME280;68830;47.566;19.012;2023-08-17T05:40:35;100224.16;;;21.64;100.00
79362;BME280;68830;47.566;19.012;2023-08-17T05:43:38;100220.25;;;21.98;100.00
79362;BME280;68830;47.566;19.012;2023-08-17T05:46:40;100228.94;;;22.00;100.00
79362;BME280;68830;47.566;19.012;2023-08-17T05:49:43;100221.78;;;22.19;100.00
79362;BME280;68830;47.566;19.012;2023-08-17T05:52:45;100228.50;;;22.42;100.00
79362;BME280;68830;47.566;19.012;2023-08-17T05:55:47;100229.47;;;22.54;100.00
79362;BME280;68830;47.566;19.012;2023-08-17T05:58:50;100215.50;;;22.57;100.00
79362;BME280;68830;47.566;19.012;2023-08-17T06:01:52;100163.31;;;22.63;100.00
79362;BME280;68830;47.566;19.012;2023-08-17T06:04:54;100165.81;;;22.40;100.00
79362;BME280;68830;47.566;19.012;2023-08-17T06:07:57;100157.63;;;22.53;100.00
79362;BME280;68830;47.566;19.012;2023-08-17T06:11:00;100158.47;;;22.72;100.00
79362;BME280;68830;47.566;19.012;2023-08-17T06:14:03;100161.75;;;23.17;100.00
79362;BME280;68830;47.566;19.012;2023-08-17T06:17:06;100178.19;;;23.15;99.70
79362;BME280;68830;47.566;19.012;2023-08-17T06:20:10;100154.78;;;22.91;100.00
79362;BME280;68830;47.566;19.012;2023-08-17T06:23:12;100167.75;;;23.37;100.00
79362;BME280;68830;47.566;19.012;2023-08-17T06:26:14;100165.13;;;23.31;97.49
79362;BME280;68830;47.566;19.012;2023-08-17T06:29:18;100167.75;;;23.37;100.00
79362;BME280;68830;47.566;19.012;2023-08-17T06:32:20;100222.25;;;23.34;94.53
79362;BME280;68830;47.566;19.012;2023-08-17T06:35:22;100216.69;;;23.47;92.90
79362;BME280;68830;47.566;19.012;2023-08-17T06:38:24;100204.13;;;23.60;95.62
79362;BME280;68830;47.566;19.012;2023-08-17T06:41:26;100209.56;;;23.71;92.87
79362;BME280;68830;47.566;19.012;2023-08-17T06:44:30;100215.94;;;23.77;95.44
79362;BME280;68830;47.566;19.012;2023-08-17T06:47:32;100209.25;;;23.43;93.61
79362;BME280;68830;47.566;19.012;2023-08-17T06:50:34;100198.66;;;23.41;96.15
79362;BME280;68830;47.566;19.012;2023-08-17T06:53:36;100198.97;;;23.51;93.40
79362;BME280;68830;47.566;19.012;2023-08-17T06:56:38;100186.28;;;23.70;92.81
79362;BME280;68830;47.566;19.012;2023-08-17T06:59:41;100195.53;;;23.93;91.50
79362;BME280;68830;47.566;19.012;2023-08-17T07:02:43;100156.81;;;24.22;90.63
79362;BME280;68830;47.566;19.012;2023-08-17T07:05:54;100148.09;;;24.20;94.54
79362;BME280;68830;47.566;19.012;2023-08-17T07:08:57;100159.63;;;23.85;91.90
79362;BME280;68830;47.566;19.012;2023-08-17T07:11:59;100179.25;;;24.11;92.07
79362;BME280;68830;47.566;19.012;2023-08-17T07:15:05;100185.13;;;24.08;89.93
79362;BME280;68830;47.566;19.012;2023-08-17T07:18:07;100170.28;;;24.40;89.18
79362;BME280;68830;47.566;19.012;2023-08-17T07:21:09;100186.25;;;24.30;89.23
79362;BME280;68830;47.566;19.012;2023-08-17T07:24:12;100173.25;;;24.09;88.82
79362;BME280;68830;47.566;19.012;2023-08-17T07:27:15;100184.72;;;24.34;92.61
79362;BME280;68830;47.566;19.012;2023-08-17T07:30:18;100195.25;;;24.66;87.88
79362;BME280;68830;47.566;19.012;2023-08-17T07:33:20;100185.97;;;24.20;89.01
79362;BME280;68830;47.566;19.012;2023-08-17T07:36:22;100182.44;;;23.78;91.62
79362;BME280;68830;47.566;19.012;2023-08-17T07:39:24;100174.25;;;23.66;93.52
79362;BME280;68830;47.566;19.012;2023-08-17T07:42:26;100182.50;;;23.53;95.30
79362;BME280;68830;47.566;19.012;2023-08-17T07:45:31;100166.56;;;23.33;96.47
79362;BME280;68830;47.566;19.012;2023-08-17T07:48:33;100173.06;;;23.25;100.00
79362;BME280;68830;47.566;19.012;2023-08-17T07:51:35;100169.81;;;23.72;94.53
79362;BME280;68830;47.566;19.012;2023-08-17T07:54:37;100181.44;;;24.02;96.49
79362;BME280;68830;47.566;19.012;2023-08-17T07:57:40;100173.84;;;23.81;94.95
79362;BME280;68830;47.566;19.012;2023-08-17T08:00:44;100180.44;;;23.85;97.55
79362;BME280;68830;47.566;19.012;2023-08-17T08:03:46;100177.78;;;23.97;96.59
79362;BME280;68830;47.566;19.012;2023-08-17T08:06:48;100182.97;;;23.50;94.99
79362;BME280;68830;47.566;19.012;2023-08-17T08:09:50;100182.22;;;23.43;100.00
79362;BME280;68830;47.566;19.012;2023-08-17T08:12:52;100183.50;;;23.40;95.79
79362;BME280;68830;47.566;19.012;2023-08-17T08:15:56;100175.31;;;23.65;97.57
79362;BME280;68830;47.566;19.012;2023-08-17T08:18:58;100177.56;;;23.68;95.61
79362;BME280;68830;47.566;19.012;2023-08-17T08:22:00;100164.50;;;23.95;95.42
79362;BME280;68830;47.566;19.012;2023-08-17T08:25:04;100171.06;;;24.29;96.17
79362;BME280;68830;47.566;19.012;2023-08-17T08:28:06;100164.63;;;24.65;90.93
79362;BME280;68830;47.566;19.012;2023-08-17T08:31:10;100152.66;;;25.37;88.95
79362;BME280;68830;47.566;19.012;2023-08-17T08:34:12;100159.53;;;25.56;87.89
79362;BME280;68830;47.566;19.012;2023-08-17T08:37:14;100144.34;;;25.15;85.26
79362;BME280;68830;47.566;19.012;2023-08-17T08:40:17;100157.34;;;25.81;79.01
79362;BME280;68830;47.566;19.012;2023-08-17T08:43:19;100155.03;;;25.73;79.97
79362;BME280;68830;47.566;19.012;2023-08-17T08:46:26;100154.56;;;25.93;78.99
79362;BME280;68830;47.566;19.012;2023-08-17T08:49:33;100145.44;;;26.33;80.36
79362;BME280;68830;47.566;19.012;2023-08-17T08:52:46;100141.91;;;26.32;79.39
79362;BME280;68830;47.566;19.012;2023-08-17T08:55:55;100138.06;;;26.62;79.84
79362;BME280;68830;47.566;19.012;2023-08-17T08:59:01;100152.06;;;26.92;70.02
79362;BME280;68830;47.566;19.012;2023-08-17T09:02:06;100134.84;;;26.31;69.60
79362;BME280;68830;47.566;19.012;2023-08-17T09:05:14;100154.78;;;26.20;67.04
79362;BME280;68830;47.566;19.012;2023-08-17T09:08:22;100159.25;;;25.98;71.14
79362;BME280;68830;47.566;19.012;2023-08-17T09:11:27;100149.69;;;25.78;71.91
79362;BME280;68830;47.566;19.012;2023-08-17T09:14:29;100143.38;;;25.61;73.91
79362;BME280;68830;47.566;19.012;2023-08-17T09:17:33;100147.19;;;26.05;72.42
79362;BME280;68830;47.566;19.012;2023-08-17T09:20:39;100153.41;;;25.89;72.33
79362;BME280;68830;47.566;19.012;2023-08-17T09:23:51;100146.66;;;25.23;75.45
79362;BME280;68830;47.566;19.012;2023-08-17T09:27:00;100142.13;;;25.40;76.42
79362;BME280;68830;47.566;19.012;2023-08-17T09:30:02;100139.94;;;25.25;76.62
79362;BME280;68830;47.566;19.012;2023-08-17T09:33:08;100136.72;;;25.40;76.92
79362;BME280;68830;47.566;19.012;2023-08-17T09:36:11;100133.09;;;25.35;77.35
79362;BME280;68830;47.566;19.012;2023-08-17T09:39:15;100124.38;;;25.61;76.85
79362;BME280;68830;47.566;19.012;2023-08-17T09:42:17;100133.59;;;25.60;75.35
79362;BME280;68830;47.566;19.012;2023-08-17T09:45:19;100128.38;;;25.70;77.09
79362;BME280;68830;47.566;19.012;2023-08-17T09:48:24;100121.16;;;25.76;75.78
79362;BME280;68830;47.566;19.012;2023-08-17T09:51:27;100120.88;;;26.39;74.56
79362;BME280;68830;47.566;19.012;2023-08-17T09:54:31;100114.03;;;26.54;70.40
79362;BME280;68830;47.566;19.012;2023-08-17T09:57:33;100112.94;;;26.93;72.41
79362;BME280;68830;47.566;19.012;2023-08-17T10:00:37;100104.41;;;26.85;73.45
79362;BME280;68830;47.566;19.012;2023-08-17T10:03:43;100104.16;;;26.31;72.13
79362;BME280;68830;47.566;19.012;2023-08-17T10:06:52;100111.06;;;26.55;71.23
79362;BME280;68830;47.566;19.012;2023-08-17T10:10:03;100110.91;;;27.00;70.40
79362;BME280;68830;47.566;19.012;2023-08-17T10:13:08;100104.69;;;26.83;71.29
79362;BME280;68830;47.566;19.012;2023-08-17T10:16:22;100097.66;;;26.48;71.89
79362;BME280;68830;47.566;19.012;2023-08-17T10:19:37;100104.84;;;26.76;73.18
79362;BME280;68830;47.566;19.012;2023-08-17T10:22:54;100104.41;;;26.85;69.29
79362;BME280;68830;47.566;19.012;2023-08-17T10:25:59;100091.69;;;26.68;71.09
79362;BME280;68830;47.566;19.012;2023-08-17T10:29:03;100118.94;;;26.73;71.38
79362;BME280;68830;47.566;19.012;2023-08-17T10:32:15;100097.84;;;26.42;72.61
79362;BME280;68830;47.566;19.012;2023-08-17T10:35:19;100102.00;;;26.88;72.03
79362;BME280;68830;47.566;19.012;2023-08-17T10:38:22;100115.25;;;26.29;74.15
79362;BME280;68830;47.566;19.012;2023-08-17T10:41:24;100096.69;;;26.38;71.96
79362;BME280;68830;47.566;19.012;2023-08-17T10:44:43;100105.31;;;26.52;68.68
79362;BME280;68830;47.566;19.012;2023-08-17T10:47:45;100104.94;;;26.82;68.51
79362;BME280;68830;47.566;19.012;2023-08-17T10:51:03;100111.03;;;26.72;71.32
79362;BME280;68830;47.566;19.012;2023-08-17T10:54:06;100109.19;;;26.56;68.70
79362;BME280;68830;47.566;19.012;2023-08-17T10:57:33;100106.59;;;26.32;71.03
79362;BME280;68830;47.566;19.012;2023-08-17T11:00:36;100113.72;;;26.50;69.35
79362;BME280;68830;47.566;19.012;2023-08-17T11:03:39;100113.25;;;26.36;70.82
79362;BME280;68830;47.566;19.012;2023-08-17T11:06:45;100106.63;;;26.49;72.36
79362;BME280;68830;47.566;19.012;2023-08-17T11:09:58;100118.91;;;26.52;70.06
79362;BME280;68830;47.566;19.012;2023-08-17T11:13:01;100111.84;;;26.50;68.17
79362;BME280;68830;47.566;19.012;2023-08-17T11:16:04;100111.56;;;26.91;69.37
79362;BME280;68830;47.566;19.012;2023-08-17T11:19:07;100109.34;;;26.88;68.03
79362;BME280;68830;47.566;19.012;2023-08-17T11:22:16;100098.41;;;26.83;68.10
79362;BME280;68830;47.566;19.012;2023-08-17T11:25:26;100101.59;;;26.58;68.70
79362;BME280;68830;47.566;19.012;2023-08-17T11:28:34;100102.00;;;26.66;68.45
79362;BME280;68830;47.566;19.012;2023-08-17T11:31:43;100100.38;;;26.48;69.04
79362;BME280;68830;47.566;19.012;2023-08-17T11:34:45;100104.66;;;26.44;69.10
79362;BME280;68830;47.566;19.012;2023-08-17T11:37:49;100100.88;;;26.45;71.65
79362;BME280;68830;47.566;19.012;2023-08-17T11:40:51;100103.13;;;26.70;70.16
79362;BME280;68830;47.566;19.012;2023-08-17T11:43:54;100107.91;;;26.63;71.06
79362;BME280;68830;47.566;19.012;2023-08-17T11:46:57;100103.72;;;26.94;69.50
79362;BME280;68830;47.566;19.012;2023-08-17T11:49:59;100098.44;;;27.04;68.16
79362;BME280;68830;47.566;19.012;2023-08-17T11:53:21;100105.41;;;27.17;71.33
79362;BME280;68830;47.566;19.012;2023-08-17T11:56:23;100110.81;;;27.39;69.72
79362;BME280;68830;47.566;19.012;2023-08-17T11:59:26;100105.25;;;27.07;69.08
79362;BME280;68830;47.566;19.012;2023-08-17T12:02:31;100099.69;;;26.97;68.29
79362;BME280;68830;47.566;19.012;2023-08-17T12:05:33;100095.97;;;27.03;67.81
79362;BME280;68830;47.566;19.012;2023-08-17T12:08:37;100097.78;;;26.97;70.16
79362;BME280;68830;47.566;19.012;2023-08-17T12:11:39;100098.53;;;26.93;68.13
79362;BME280;68830;47.566;19.012;2023-08-17T12:14:41;100087.75;;;26.98;69.44
79362;BME280;68830;47.566;19.012;2023-08-17T12:17:48;100091.97;;;27.10;70.07
79362;BME280;68830;47.566;19.012;2023-08-17T12:20:52;100083.13;;;26.98;67.88
79362;BME280;68830;47.566;19.012;2023-08-17T12:23:56;100092.75;;;27.28;67.47
79362;BME280;68830;47.566;19.012;2023-08-17T12:26:58;100093.56;;;27.06;69.56
79362;BME280;68830;47.566;19.012;2023-08-17T12:30:01;100077.66;;;27.15;68.79
79362;BME280;68830;47.566;19.012;2023-08-17T12:33:03;100080.28;;;27.59;69.76
79362;BME280;68830;47.566;19.012;2023-08-17T12:36:06;100065.28;;;27.83;66.95
79362;BME280;68830;47.566;19.012;2023-08-17T12:39:10;100068.28;;;27.82;65.89
79362;BME280;68830;47.566;19.012;2023-08-17T12:42:12;100066.03;;;27.74;64.49
79362;BME280;68830;47.566;19.012;2023-08-17T12:45:15;100066.97;;;27.35;66.21
79362;BME280;68830;47.566;19.012;2023-08-17T12:48:17;100064.41;;;27.73;65.39
79362;BME280;68830;47.566;19.012;2023-08-17T12:51:20;100047.28;;;27.77;60.98
79362;BME280;68830;47.566;19.012;2023-08-17T12:54:23;100036.94;;;28.16;62.66
79362;BME280;68830;47.566;19.012;2023-08-17T12:57:26;100046.81;;;28.65;58.86
79362;BME280;68830;47.566;19.012;2023-08-17T13:00:28;100037.38;;;28.88;58.14
79362;BME280;68830;47.566;19.012;2023-08-17T13:03:30;100034.78;;;28.61;60.24
79362;BME280;68830;47.566;19.012;2023-08-17T13:06:33;100033.94;;;28.50;59.60
79362;BME280;68830;47.566;19.012;2023-08-17T13:09:50;100027.19;;;28.68;57.76
79362;BME280;68830;47.566;19.012;2023-08-17T13:12:53;100022.84;;;28.67;57.08
79362;BME280;68830;47.566;19.012;2023-08-17T13:16:01;100023.72;;;28.30;57.88
79362;BME280;68830;47.566;19.012;2023-08-17T13:19:05;100022.28;;;28.65;55.81
79362;BME280;68830;47.566;19.012;2023-08-17T13:22:08;100026.25;;;29.04;54.93
79362;BME280;68830;47.566;19.012;2023-08-17T13:25:11;100016.00;;;28.64;57.04
79362;BME280;68830;47.566;19.012;2023-08-17T13:28:13;100016.22;;;28.10;59.57
79362;BME280;68830;47.566;19.012;2023-08-17T13:31:15;100017.47;;;27.92;59.88
79362;BME280;68830;47.566;19.012;2023-08-17T13:34:25;100016.09;;;27.90;60.07
79362;BME280;68830;47.566;19.012;2023-08-17T13:37:28;100024.50;;;27.88;62.84
79362;BME280;68830;47.566;19.012;2023-08-17T13:40:31;100024.28;;;27.95;60.05
79362;BME280;68830;47.566;19.012;2023-08-17T13:43:33;100021.00;;;27.93;60.52
79362;BME280;68830;47.566;19.012;2023-08-17T13:46:35;100009.44;;;27.76;60.57
79362;BME280;68830;47.566;19.012;2023-08-17T13:49:38;100015.44;;;27.51;61.52
79362;BME280;68830;47.566;19.012;2023-08-17T13:52:40;100004.56;;;27.51;62.40
79362;BME280;68830;47.566;19.012;2023-08-17T13:55:43;99999.56;;;27.69;61.37
79362;BME280;68830;47.566;19.012;2023-08-17T13:58:45;100008.19;;;27.88;59.60
79362;BME280;68830;47.566;19.012;2023-08-17T14:01:47;100003.75;;;27.82;62.64
79362;BME280;68830;47.566;19.012;2023-08-17T14:04:49;100010.00;;;27.51;63.59
79362;BME280;68830;47.566;19.012;2023-08-17T14:07:51;100013.56;;;27.24;63.52
79362;BME280;68830;47.566;19.012;2023-08-17T14:10:55;100016.88;;;27.26;64.78
79362;BME280;68830;47.566;19.012;2023-08-17T14:13:57;100026.53;;;27.17;67.88
79362;BME280;68830;47.566;19.012;2023-08-17T14:16:59;100011.91;;;27.23;65.70
79362;BME280;68830;47.566;19.012;2023-08-17T14:20:01;100016.63;;;27.06;66.88
79362;BME280;68830;47.566;19.012;2023-08-17T14:23:04;100023.97;;;27.05;63.69
79362;BME280;68830;47.566;19.012;2023-08-17T14:26:07;100017.81;;;26.93;66.11
79362;BME280;68830;47.566;19.012;2023-08-17T14:29:09;100008.22;;;27.07;65.56
79362;BME280;68830;47.566;19.012;2023-08-17T14:32:11;100023.00;;;26.73;68.42
79362;BME280;68830;47.566;19.012;2023-08-17T14:35:14;100024.69;;;26.79;68.13
79362;BME280;68830;47.566;19.012;2023-08-17T14:38:16;100004.75;;;26.68;65.41
79362;BME280;68830;47.566;19.012;2023-08-17T14:41:21;100015.88;;;26.67;69.81
79362;BME280;68830;47.566;19.012;2023-08-17T14:44:23;100018.16;;;26.53;70.95
79362;BME280;68830;47.566;19.012;2023-08-17T14:47:25;100015.88;;;26.89;68.29
79362;BME280;68830;47.566;19.012;2023-08-17T14:50:27;100026.50;;;27.12;66.90
79362;BME280;68830;47.566;19.012;2023-08-17T14:53:30;100016.09;;;27.09;67.01
79362;BME280;68830;47.566;19.012;2023-08-17T14:56:34;100001.91;;;26.58;68.65
79362;BME280;68830;47.566;19.012;2023-08-17T14:59:36;100016.81;;;26.56;71.13
79362;BME280;68830;47.566;19.012;2023-08-17T15:02:38;99988.69;;;26.45;70.96
79362;BME280;68830;47.566;19.012;2023-08-17T15:05:40;100001.09;;;26.58;69.21
79362;BME280;68830;47.566;19.012;2023-08-17T15:08:42;100021.44;;;26.55;69.88
79362;BME280;68830;47.566;19.012;2023-08-17T15:11:46;100011.50;;;26.27;75.62
79362;BME280;68830;47.566;19.012;2023-08-17T15:14:48;100014.34;;;25.99;82.12
79362;BME280;68830;47.566;19.012;2023-08-17T15:17:50;100011.84;;;25.47;87.19
79362;BME280;68830;47.566;19.012;2023-08-17T15:20:51;99997.78;;;25.05;90.34
79362;BME280;68830;47.566;19.012;2023-08-17T15:23:54;100005.44;;;24.67;100.00
79362;BME280;68830;47.566;19.012;2023-08-17T15:26:58;100012.41;;;24.52;100.00
79362;BME280;68830;47.566;19.012;2023-08-17T15:30:00;99993.22;;;24.18;100.00
79362;BME280;68830;47.566;19.012;2023-08-17T15:33:03;99998.41;;;24.31;98.90
79362;BME280;68830;47.566;19.012;2023-08-17T15:36:05;99995.03;;;24.36;100.00
79362;BME280;68830;47.566;19.012;2023-08-17T15:39:07;99997.09;;;24.46;100.00
79362;BME280;68830;47.566;19.012;2023-08-17T15:42:11;100007.69;;;24.59;98.99